TMW weather

Tamworth Airport
Tamworth, New South Wales, Australia

Public forecast

Using degrees Celsius for public forecast. Weather courtesy of forecast.io.

METAR (pilot weather report)

Retrieved 2018/04/27 08:00 UTC (12 minutes ago):

YSTW 270800Z AUTO 14012KT 9999 // NCD 18/08 Q1021 RF00.0/000.0

TAF (pilot weather forecast)

Retrieved 2018/04/27 06:36 UTC (2 hours ago):

TAF TAF YSTW 270505Z 2706/2724 15010KT 9999 SCT050